sensor_id;sensor_type;location;lat;lon;timestamp;temperature;humidity
55016;DHT22;40919;43.236;21.590;2022-11-11T00:00:30;282.10;2278.40
55016;DHT22;40919;43.236;21.590;2022-11-11T00:02:56;282.10;2278.40
55016;DHT22;40919;43.236;21.590;2022-11-11T00:05:22;282.20;2278.40
55016;DHT22;40919;43.236;21.590;2022-11-11T00:07:50;282.20;2278.40
55016;DHT22;40919;43.236;21.590;2022-11-11T00:10:16;282.40;2278.40
55016;DHT22;40919;43.236;21.590;2022-11-11T00:12:42;282.50;2022.40
55016;DHT22;40919;43.236;21.590;2022-11-11T00:15:08;307.30;2304.00
55016;DHT22;40919;43.236;21.590;2022-11-11T00:17:34;307.50;2304.00
55016;DHT22;40919;43.236;21.590;2022-11-11T00:20:18;307.60;2304.00
55016;DHT22;40919;43.236;21.590;2022-11-11T00:23:02;307.80;2022.40
55016;DHT22;40919;43.236;21.590;2022-11-11T00:25:51;307.80;2304.00
55016;DHT22;40919;43.236;21.590;2022-11-11T00:28:18;307.90;2304.00
55016;DHT22;40919;43.236;21.590;2022-11-11T00:30:44;308.00;2304.00
55016;DHT22;40919;43.236;21.590;2022-11-11T00:33:10;308.10;2304.00
55016;DHT22;40919;43.236;21.590;2022-11-11T00:35:35;308.10;2304.00
55016;DHT22;40919;43.236;21.590;2022-11-11T00:38:20;308.10;1971.20
55016;DHT22;40919;43.236;21.590;2022-11-11T00:41:05;308.10;2304.00
55016;DHT22;40919;43.236;21.590;2022-11-11T00:43:31;308.10;2304.00
55016;DHT22;40919;43.236;21.590;2022-11-11T00:45:57;308.10;2304.00
55016;DHT22;40919;43.236;21.590;2022-11-11T00:48:43;308.10;2304.00
55016;DHT22;40919;43.236;21.590;2022-11-11T00:51:27;308.10;2176.00
55016;DHT22;40919;43.236;21.590;2022-11-11T00:53:54;308.10;2304.00
55016;DHT22;40919;43.236;21.590;2022-11-11T00:56:21;332.80;1996.80
55016;DHT22;40919;43.236;21.590;2022-11-11T00:58:47;332.80;1971.20
55016;DHT22;40919;43.236;21.590;2022-11-11T01:01:13;332.90;2329.60
55016;DHT22;40919;43.236;21.590;2022-11-11T01:03:38;332.90;2329.60
55016;DHT22;40919;43.236;21.590;2022-11-11T01:06:05;332.90;2329.60
55016;DHT22;40919;43.236;21.590;2022-11-11T01:08:31;332.90;2329.60
55016;DHT22;40919;43.236;21.590;2022-11-11T01:10:58;307.90;2304.00
55016;DHT22;40919;43.236;21.590;2022-11-11T01:13:26;332.90;2329.60
55016;DHT22;40919;43.236;21.590;2022-11-11T01:16:00;333.00;2329.60
55016;DHT22;40919;43.236;21.590;2022-11-11T01:18:27;333.00;1945.60
55016;DHT22;40919;43.236;21.590;2022-11-11T01:23:31;333.00;2329.60
55016;DHT22;40919;43.236;21.590;2022-11-11T01:26:25;333.00;2329.60
55016;DHT22;40919;43.236;21.590;2022-11-11T01:28:51;333.00;2329.60
55016;DHT22;40919;43.236;21.590;2022-11-11T01:31:18;333.00;2329.60
55016;DHT22;40919;43.236;21.590;2022-11-11T01:33:45;333.00;2329.60
55016;DHT22;40919;43.236;21.590;2022-11-11T01:36:17;333.00;2329.60
55016;DHT22;40919;43.236;21.590;2022-11-11T01:38:46;333.00;2329.60
55016;DHT22;40919;43.236;21.590;2022-11-11T01:41:16;333.10;2329.60
55016;DHT22;40919;43.236;21.590;2022-11-11T01:46:42;333.00;2329.60
55016;DHT22;40919;43.236;21.590;2022-11-11T01:49:29;333.00;2329.60
55016;DHT22;40919;43.236;21.590;2022-11-11T01:51:58;333.00;2329.60
55016;DHT22;40919;43.236;21.590;2022-11-11T01:57:07;333.00;2329.60
55016;DHT22;40919;43.236;21.590;2022-11-11T01:59:36;333.00;2329.60
55016;DHT22;40919;43.236;21.590;2022-11-11T02:02:12;332.90;2329.60
55016;DHT22;40919;43.236;21.590;2022-11-11T02:04:39;332.90;2329.60
55016;DHT22;40919;43.236;21.590;2022-11-11T02:07:25;332.90;2329.60
55016;DHT22;40919;43.236;21.590;2022-11-11T02:09:51;332.80;2329.60
55016;DHT22;40919;43.236;21.590;2022-11-11T02:12:17;332.90;2329.60
55016;DHT22;40919;43.236;21.590;2022-11-11T02:15:02;332.80;2329.60
55016;DHT22;40919;43.236;21.590;2022-11-11T02:17:30;332.80;2329.60
55016;DHT22;40919;43.236;21.590;2022-11-11T02:19:58;332.80;2329.60
55016;DHT22;40919;43.236;21.590;2022-11-11T02:22:43;332.80;2329.60
55016;DHT22;40919;43.236;21.590;2022-11-11T02:25:15;332.80;2329.60
55016;DHT22;40919;43.236;21.590;2022-11-11T02:27:44;308.10;2304.00
55016;DHT22;40919;43.236;21.590;2022-11-11T02:30:11;308.10;2304.00
55016;DHT22;40919;43.236;21.590;2022-11-11T02:32:47;308.10;2304.00
55016;DHT22;40919;43.236;21.590;2022-11-11T02:35:24;308.10;2304.00
55016;DHT22;40919;43.236;21.590;2022-11-11T02:37:52;308.10;2304.00
55016;DHT22;40919;43.236;21.590;2022-11-11T02:40:28;308.10;2304.00
55016;DHT22;40919;43.236;21.590;2022-11-11T02:42:56;308.10;2304.00
55016;DHT22;40919;43.236;21.590;2022-11-11T02:45:22;308.10;2304.00
55016;DHT22;40919;43.236;21.590;2022-11-11T02:47:48;308.10;2304.00
55016;DHT22;40919;43.236;21.590;2022-11-11T02:50:13;308.10;2304.00
55016;DHT22;40919;43.236;21.590;2022-11-11T02:52:39;308.10;2304.00
55016;DHT22;40919;43.236;21.590;2022-11-11T02:55:06;308.10;2304.00
55016;DHT22;40919;43.236;21.590;2022-11-11T02:57:32;308.00;2304.00
55016;DHT22;40919;43.236;21.590;2022-11-11T02:59:59;308.10;2304.00
55016;DHT22;40919;43.236;21.590;2022-11-11T03:02:26;308.00;2304.00
55016;DHT22;40919;43.236;21.590;2022-11-11T03:04:56;308.10;2304.00
55016;DHT22;40919;43.236;21.590;2022-11-11T03:07:24;308.10;2304.00
55016;DHT22;40919;43.236;21.590;2022-11-11T03:09:50;308.10;2304.00
55016;DHT22;40919;43.236;21.590;2022-11-11T03:12:16;308.10;2304.00
55016;DHT22;40919;43.236;21.590;2022-11-11T03:14:42;308.10;2304.00
55016;DHT22;40919;43.236;21.590;2022-11-11T03:17:08;308.10;2304.00
55016;DHT22;40919;43.236;21.590;2022-11-11T03:19:53;308.10;2304.00
55016;DHT22;40919;43.236;21.590;2022-11-11T03:22:38;308.10;2304.00
55016;DHT22;40919;43.236;21.590;2022-11-11T03:25:05;308.10;2304.00
55016;DHT22;40919;43.236;21.590;2022-11-11T03:27:49;308.10;2304.00
55016;DHT22;40919;43.236;21.590;2022-11-11T03:30:15;308.10;2304.00
55016;DHT22;40919;43.236;21.590;2022-11-11T03:32:42;332.80;2329.60
55016;DHT22;40919;43.236;21.590;2022-11-11T03:35:08;332.80;2329.60
55016;DHT22;40919;43.236;21.590;2022-11-11T03:37:35;308.10;2304.00
55016;DHT22;40919;43.236;21.590;2022-11-11T03:40:19;332.80;2329.60
55016;DHT22;40919;43.236;21.590;2022-11-11T03:42:45;332.80;2329.60
55016;DHT22;40919;43.236;21.590;2022-11-11T03:45:10;332.80;2329.60
55016;DHT22;40919;43.236;21.590;2022-11-11T03:47:36;332.80;2329.60
55016;DHT22;40919;43.236;21.590;2022-11-11T03:50:02;332.80;2329.60
55016;DHT22;40919;43.236;21.590;2022-11-11T03:52:28;332.80;2329.60
55016;DHT22;40919;43.236;21.590;2022-11-11T03:54:53;332.80;2329.60
55016;DHT22;40919;43.236;21.590;2022-11-11T03:57:19;332.80;2329.60
55016;DHT22;40919;43.236;21.590;2022-11-11T03:59:57;332.80;2329.60
55016;DHT22;40919;43.236;21.590;2022-11-11T04:02:23;332.80;2329.60
55016;DHT22;40919;43.236;21.590;2022-11-11T04:05:08;332.80;2329.60
55016;DHT22;40919;43.236;21.590;2022-11-11T04:07:52;332.80;2329.60
55016;DHT22;40919;43.236;21.590;2022-11-11T04:10:36;332.80;2329.60
55016;DHT22;40919;43.236;21.590;2022-11-11T04:13:03;308.10;2304.00
55016;DHT22;40919;43.236;21.590;2022-11-11T04:15:48;308.10;2304.00
55016;DHT22;40919;43.236;21.590;2022-11-11T04:18:35;308.10;2304.00
55016;DHT22;40919;43.236;21.590;2022-11-11T04:21:19;332.80;2329.60
55016;DHT22;40919;43.236;21.590;2022-11-11T04:24:05;332.80;2329.60
55016;DHT22;40919;43.236;21.590;2022-11-11T04:26:49;332.80;2329.60
55016;DHT22;40919;43.236;21.590;2022-11-11T04:29:15;332.80;2329.60
55016;DHT22;40919;43.236;21.590;2022-11-11T04:31:54;332.80;2329.60
55016;DHT22;40919;43.236;21.590;2022-11-11T04:34:39;332.80;2329.60
55016;DHT22;40919;43.236;21.590;2022-11-11T04:37:05;332.80;2329.60
55016;DHT22;40919;43.236;21.590;2022-11-11T04:39:31;332.80;2329.60
55016;DHT22;40919;43.236;21.590;2022-11-11T04:42:15;332.80;2329.60
55016;DHT22;40919;43.236;21.590;2022-11-11T04:44:41;332.80;2329.60
55016;DHT22;40919;43.236;21.590;2022-11-11T04:47:25;332.90;2329.60
55016;DHT22;40919;43.236;21.590;2022-11-11T04:49:51;332.80;2329.60
55016;DHT22;40919;43.236;21.590;2022-11-11T04:52:16;332.80;2329.60
55016;DHT22;40919;43.236;21.590;2022-11-11T04:54:52;332.80;2329.60
55016;DHT22;40919;43.236;21.590;2022-11-11T05:00:09;332.90;2329.60
55016;DHT22;40919;43.236;21.590;2022-11-11T05:02:36;332.80;2329.60
55016;DHT22;40919;43.236;21.590;2022-11-11T05:05:21;332.90;2329.60
55016;DHT22;40919;43.236;21.590;2022-11-11T05:07:47;332.90;2329.60
55016;DHT22;40919;43.236;21.590;2022-11-11T05:10:31;332.90;2329.60
55016;DHT22;40919;43.236;21.590;2022-11-11T05:12:57;332.90;2329.60
55016;DHT22;40919;43.236;21.590;2022-11-11T05:15:43;332.90;2329.60
55016;DHT22;40919;43.236;21.590;2022-11-11T05:18:27;332.90;2329.60
55016;DHT22;40919;43.236;21.590;2022-11-11T05:21:18;332.90;2329.60
55016;DHT22;40919;43.236;21.590;2022-11-11T05:23:45;332.80;2329.60
55016;DHT22;40919;43.236;21.590;2022-11-11T05:26:30;332.90;2329.60
55016;DHT22;40919;43.236;21.590;2022-11-11T05:28:55;332.90;2329.60
55016;DHT22;40919;43.236;21.590;2022-11-11T05:31:21;332.90;2329.60
55016;DHT22;40919;43.236;21.590;2022-11-11T05:33:47;333.00;2329.60
55016;DHT22;40919;43.236;21.590;2022-11-11T05:36:12;333.00;2329.60
55016;DHT22;40919;43.236;21.590;2022-11-11T05:38:38;333.00;2329.60
55016;DHT22;40919;43.236;21.590;2022-11-11T05:41:04;333.00;2329.60
55016;DHT22;40919;43.236;21.590;2022-11-11T05:43:30;333.00;2329.60
55016;DHT22;40919;43.236;21.590;2022-11-11T05:45:56;333.00;2329.60
55016;DHT22;40919;43.236;21.590;2022-11-11T05:48:22;333.00;2329.60
55016;DHT22;40919;43.236;21.590;2022-11-11T05:50:47;333.10;2329.60
55016;DHT22;40919;43.236;21.590;2022-11-11T05:53:13;333.00;2329.60
55016;DHT22;40919;43.236;21.590;2022-11-11T05:55:39;333.00;2329.60
55016;DHT22;40919;43.236;21.590;2022-11-11T05:58:05;333.00;2329.60
55016;DHT22;40919;43.236;21.590;2022-11-11T06:00:30;333.00;2329.60
55016;DHT22;40919;43.236;21.590;2022-11-11T06:03:03;333.00;2329.60
55016;DHT22;40919;43.236;21.590;2022-11-11T06:05:30;333.00;2329.60
55016;DHT22;40919;43.236;21.590;2022-11-11T06:07:56;333.00;2329.60
55016;DHT22;40919;43.236;21.590;2022-11-11T06:10:22;333.10;2329.60
55016;DHT22;40919;43.236;21.590;2022-11-11T06:13:00;333.10;2329.60
55016;DHT22;40919;43.236;21.590;2022-11-11T06:15:39;333.00;2329.60
55016;DHT22;40919;43.236;21.590;2022-11-11T06:18:06;333.10;2329.60
55016;DHT22;40919;43.236;21.590;2022-11-11T06:20:32;333.10;2329.60
55016;DHT22;40919;43.236;21.590;2022-11-11T06:23:03;333.10;2329.60
55016;DHT22;40919;43.236;21.590;2022-11-11T06:25:30;333.10;2329.60
55016;DHT22;40919;43.236;21.590;2022-11-11T06:28:16;333.10;2329.60
55016;DHT22;40919;43.236;21.590;2022-11-11T06:30:42;333.10;2329.60
55016;DHT22;40919;43.236;21.590;2022-11-11T06:33:08;333.20;2329.60
55016;DHT22;40919;43.236;21.590;2022-11-11T06:35:35;333.20;2329.60
55016;DHT22;40919;43.236;21.590;2022-11-11T06:38:03;333.20;2329.60
55016;DHT22;40919;43.236;21.590;2022-11-11T06:40:29;333.20;2329.60
55016;DHT22;40919;43.236;21.590;2022-11-11T06:42:59;333.20;2329.60
55016;DHT22;40919;43.236;21.590;2022-11-11T06:45:26;333.20;2329.60
55016;DHT22;40919;43.236;21.590;2022-11-11T06:47:53;333.20;2329.60
55016;DHT22;40919;43.236;21.590;2022-11-11T06:50:19;333.20;2329.60
55016;DHT22;40919;43.236;21.590;2022-11-11T06:52:45;333.30;2329.60
55016;DHT22;40919;43.236;21.590;2022-11-11T06:55:11;333.30;2329.60
55016;DHT22;40919;43.236;21.590;2022-11-11T06:57:37;333.30;2329.60
55016;DHT22;40919;43.236;21.590;2022-11-11T07:00:04;333.30;2329.60
55016;DHT22;40919;43.236;21.590;2022-11-11T07:02:31;333.40;2329.60
55016;DHT22;40919;43.236;21.590;2022-11-11T07:04:57;333.40;2329.60
55016;DHT22;40919;43.236;21.590;2022-11-11T07:07:23;333.40;2329.60
55016;DHT22;40919;43.236;21.590;2022-11-11T07:09:48;333.40;2329.60
55016;DHT22;40919;43.236;21.590;2022-11-11T07:12:14;333.50;2329.60
55016;DHT22;40919;43.236;21.590;2022-11-11T07:14:40;333.50;2329.60
55016;DHT22;40919;43.236;21.590;2022-11-11T07:17:06;333.50;2329.60
55016;DHT22;40919;43.236;21.590;2022-11-11T07:19:32;333.60;2329.60
55016;DHT22;40919;43.236;21.590;2022-11-11T07:21:57;333.60;2329.60
55016;DHT22;40919;43.236;21.590;2022-11-11T07:24:23;333.60;2329.60
55016;DHT22;40919;43.236;21.590;2022-11-11T07:26:49;333.60;2329.60
55016;DHT22;40919;43.236;21.590;2022-11-11T07:29:15;333.60;2329.60
55016;DHT22;40919;43.236;21.590;2022-11-11T07:31:41;333.60;2329.60
55016;DHT22;40919;43.236;21.590;2022-11-11T07:34:07;333.60;2329.60
55016;DHT22;40919;43.236;21.590;2022-11-11T07:36:33;333.60;2329.60
55016;DHT22;40919;43.236;21.590;2022-11-11T07:38:59;333.70;2329.60
55016;DHT22;40919;43.236;21.590;2022-11-11T07:41:25;333.60;2329.60
55016;DHT22;40919;43.236;21.590;2022-11-11T07:43:51;333.70;2329.60
55016;DHT22;40919;43.236;21.590;2022-11-11T07:46:17;333.70;2329.60
55016;DHT22;40919;43.236;21.590;2022-11-11T07:48:43;358.60;2329.60
55016;DHT22;40919;43.236;21.590;2022-11-11T07:51:09;358.50;2329.60
55016;DHT22;40919;43.236;21.590;2022-11-11T07:53:35;358.50;2329.60
55016;DHT22;40919;43.236;21.590;2022-11-11T07:56:01;358.50;2329.60
55016;DHT22;40919;43.236;21.590;2022-11-11T07:58:27;358.80;2329.60
55016;DHT22;40919;43.236;21.590;2022-11-11T08:00:52;358.70;2329.60
55016;DHT22;40919;43.236;21.590;2022-11-11T08:03:18;358.80;2329.60
55016;DHT22;40919;43.236;21.590;2022-11-11T08:05:44;358.80;2329.60
55016;DHT22;40919;43.236;21.590;2022-11-11T08:08:10;358.90;2329.60
55016;DHT22;40919;43.236;21.590;2022-11-11T08:10:36;359.00;2329.60
55016;DHT22;40919;43.236;21.590;2022-11-11T08:13:02;359.00;2329.60
55016;DHT22;40919;43.236;21.590;2022-11-11T08:15:47;359.00;2329.60
55016;DHT22;40919;43.236;21.590;2022-11-11T08:18:13;359.10;2329.60
55016;DHT22;40919;43.236;21.590;2022-11-11T08:20:39;359.10;2329.60
55016;DHT22;40919;43.236;21.590;2022-11-11T08:23:05;359.00;2329.60
55016;DHT22;40919;43.236;21.590;2022-11-11T08:25:35;359.00;2329.60
55016;DHT22;40919;43.236;21.590;2022-11-11T08:28:04;359.00;2329.60
55016;DHT22;40919;43.236;21.590;2022-11-11T08:30:31;358.90;2329.60
55016;DHT22;40919;43.236;21.590;2022-11-11T08:33:01;358.90;2329.60
55016;DHT22;40919;43.236;21.590;2022-11-11T08:35:28;358.80;2329.60
55016;DHT22;40919;43.236;21.590;2022-11-11T08:37:54;358.80;2329.60
55016;DHT22;40919;43.236;21.590;2022-11-11T08:40:21;358.70;2329.60
55016;DHT22;40919;43.236;21.590;2022-11-11T08:42:47;358.80;2329.60
55016;DHT22;40919;43.236;21.590;2022-11-11T08:45:13;358.70;2329.60
55016;DHT22;40919;43.236;21.590;2022-11-11T08:47:39;358.70;2329.60
55016;DHT22;40919;43.236;21.590;2022-11-11T08:50:06;358.60;2329.60
55016;DHT22;40919;43.236;21.590;2022-11-11T08:52:32;358.60;2329.60
55016;DHT22;40919;43.236;21.590;2022-11-11T08:54:57;358.60;2329.60
55016;DHT22;40919;43.236;21.590;2022-11-11T08:57:26;358.60;2329.60
55016;DHT22;40919;43.236;21.590;2022-11-11T08:59:52;358.60;2329.60
55016;DHT22;40919;43.236;21.590;2022-11-11T09:02:18;358.60;2329.60
55016;DHT22;40919;43.236;21.590;2022-11-11T09:04:43;358.60;2329.60
55016;DHT22;40919;43.236;21.590;2022-11-11T09:07:10;358.60;2329.60
55016;DHT22;40919;43.236;21.590;2022-11-11T09:09:36;358.60;2329.60
55016;DHT22;40919;43.236;21.590;2022-11-11T09:12:03;358.60;2329.60
55016;DHT22;40919;43.236;21.590;2022-11-11T09:14:29;358.60;2329.60
55016;DHT22;40919;43.236;21.590;2022-11-11T09:16:55;358.70;2329.60
55016;DHT22;40919;43.236;21.590;2022-11-11T09:19:21;358.70;2329.60
55016;DHT22;40919;43.236;21.590;2022-11-11T09:21:47;358.80;2329.60
55016;DHT22;40919;43.236;21.590;2022-11-11T09:24:13;358.80;2329.60
55016;DHT22;40919;43.236;21.590;2022-11-11T09:26:38;358.80;2329.60
55016;DHT22;40919;43.236;21.590;2022-11-11T09:29:04;358.80;2329.60
55016;DHT22;40919;43.236;21.590;2022-11-11T09:31:30;358.80;2329.60
55016;DHT22;40919;43.236;21.590;2022-11-11T09:33:56;358.70;2329.60
55016;DHT22;40919;43.236;21.590;2022-11-11T09:36:22;358.80;2329.60
55016;DHT22;40919;43.236;21.590;2022-11-11T09:38:48;358.80;2329.60
55016;DHT22;40919;43.236;21.590;2022-11-11T09:47:16;358.80;2329.60
55016;DHT22;40919;43.236;21.590;2022-11-11T09:57:52;358.80;2329.60
55016;DHT22;40919;43.236;21.590;2022-11-11T10:00:25;358.80;2329.60
55016;DHT22;40919;43.236;21.590;2022-11-11T10:05:56;358.80;2329.60
55016;DHT22;40919;43.236;21.590;2022-11-11T10:08:43;358.70;2329.60
55016;DHT22;40919;43.236;21.590;2022-11-11T10:11:17;358.70;2329.60
55016;DHT22;40919;43.236;21.590;2022-11-11T10:13:47;358.70;2329.60
55016;DHT22;40919;43.236;21.590;2022-11-11T10:24:29;358.90;2329.60
55016;DHT22;40919;43.236;21.590;2022-11-11T10:27:00;358.80;2329.60
55016;DHT22;40919;43.236;21.590;2022-11-11T10:29:39;358.90;2329.60
55016;DHT22;40919;43.236;21.590;2022-11-11T10:34:40;359.00;2329.60
55016;DHT22;40919;43.236;21.590;2022-11-11T10:37:21;359.00;2329.60
55016;DHT22;40919;43.236;21.590;2022-11-11T10:42:22;359.00;2329.60
55016;DHT22;40919;43.236;21.590;2022-11-11T10:44:49;359.10;2329.60
55016;DHT22;40919;43.236;21.590;2022-11-11T10:47:44;359.00;2329.60
55016;DHT22;40919;43.236;21.590;2022-11-11T10:52:48;359.00;2329.60
55016;DHT22;40919;43.236;21.590;2022-11-11T10:55:23;359.00;2329.60
55016;DHT22;40919;43.236;21.590;2022-11-11T10:58:40;359.00;2329.60
55016;DHT22;40919;43.236;21.590;2022-11-11T11:00:39;359.00;2329.60
55016;DHT22;40919;43.236;21.590;2022-11-11T11:03:15;359.00;2329.60
55016;DHT22;40919;43.236;21.590;2022-11-11T11:05:57;359.00;2329.60
55016;DHT22;40919;43.236;21.590;2022-11-11T11:08:29;359.00;2329.60
55016;DHT22;40919;43.236;21.590;2022-11-11T11:11:13;359.00;2329.60
55016;DHT22;40919;43.236;21.590;2022-11-11T11:14:23;359.00;2329.60
55016;DHT22;40919;43.236;21.590;2022-11-11T11:16:52;359.10;2329.60
55016;DHT22;40919;43.236;21.590;2022-11-11T11:21:53;359.20;2329.60
55016;DHT22;40919;43.236;21.590;2022-11-11T11:26:54;359.20;2329.60
55016;DHT22;40919;43.236;21.590;2022-11-11T11:29:28;359.30;2329.60
55016;DHT22;40919;43.236;21.590;2022-11-11T11:31:55;384.20;2329.60
55016;DHT22;40919;43.236;21.590;2022-11-11T11:34:49;384.30;2329.60
55016;DHT22;40919;43.236;21.590;2022-11-11T11:37:16;384.40;2329.60
55016;DHT22;40919;43.236;21.590;2022-11-11T11:39:43;384.60;2329.60
55016;DHT22;40919;43.236;21.590;2022-11-11T11:42:30;384.60;2329.60
55016;DHT22;40919;43.236;21.590;2022-11-11T11:44:56;384.70;2329.60
55016;DHT22;40919;43.236;21.590;2022-11-11T11:47:38;384.70;2329.60
55016;DHT22;40919;43.236;21.590;2022-11-11T11:50:28;384.60;2329.60
55016;DHT22;40919;43.236;21.590;2022-11-11T11:53:05;384.60;2329.60
55016;DHT22;40919;43.236;21.590;2022-11-11T12:03:49;384.60;2329.60
55016;DHT22;40919;43.236;21.590;2022-11-11T12:09:09;384.40;2329.60
55016;DHT22;40919;43.236;21.590;2022-11-11T12:11:41;384.40;2329.60
55016;DHT22;40919;43.236;21.590;2022-11-11T12:14:58;384.30;2329.60
55016;DHT22;40919;43.236;21.590;2022-11-11T12:20:39;384.10;2329.60
55016;DHT22;40919;43.236;21.590;2022-11-11T12:36:56;384.10;2329.60
55016;DHT22;40919;43.236;21.590;2022-11-11T12:45:20;384.10;2329.60
55016;DHT22;40919;43.236;21.590;2022-11-11T12:53:32;384.00;2329.60
55016;DHT22;40919;43.236;21.590;2022-11-11T12:59:04;384.00;2329.60
55016;DHT22;40919;43.236;21.590;2022-11-11T13:15:23;384.30;2329.60
55016;DHT22;40919;43.236;21.590;2022-11-11T13:17:50;384.60;2329.60
55016;DHT22;40919;43.236;21.590;2022-11-11T13:23:00;384.90;2329.60
55016;DHT22;40919;43.236;21.590;2022-11-11T13:25:31;409.60;2355.20
55016;DHT22;40919;43.236;21.590;2022-11-11T13:28:06;384.90;2329.60
55016;DHT22;40919;43.236;21.590;2022-11-11T13:33:12;384.70;2329.60
55016;DHT22;40919;43.236;21.590;2022-11-11T13:35:43;384.70;2329.60
55016;DHT22;40919;43.236;21.590;2022-11-11T13:38:31;384.70;2329.60
55016;DHT22;40919;43.236;21.590;2022-11-11T13:41:00;384.60;2329.60
55016;DHT22;40919;43.236;21.590;2022-11-11T13:43:30;384.60;2329.60
55016;DHT22;40919;43.236;21.590;2022-11-11T13:46:00;384.70;2329.60
55016;DHT22;40919;43.236;21.590;2022-11-11T13:48:27;384.70;2329.60
55016;DHT22;40919;43.236;21.590;2022-11-11T13:51:30;384.60;2329.60
55016;DHT22;40919;43.236;21.590;2022-11-11T13:53:57;384.40;2329.60
55016;DHT22;40919;43.236;21.590;2022-11-11T13:58:56;384.30;2329.60
55016;DHT22;40919;43.236;21.590;2022-11-11T14:01:23;384.40;2329.60
55016;DHT22;40919;43.236;21.590;2022-11-11T14:13:52;384.00;2329.60
55016;DHT22;40919;43.236;21.590;2022-11-11T14:24:39;359.20;2329.60
55016;DHT22;40919;43.236;21.590;2022-11-11T14:29:52;359.10;2329.60
55016;DHT22;40919;43.236;21.590;2022-11-11T14:35:25;359.00;2329.60
55016;DHT22;40919;43.236;21.590;2022-11-11T14:40:44;359.00;2329.60
55016;DHT22;40919;43.236;21.590;2022-11-11T14:43:33;359.00;2329.60
55016;DHT22;40919;43.236;21.590;2022-11-11T14:46:10;358.90;2329.60
55016;DHT22;40919;43.236;21.590;2022-11-11T14:48:59;358.90;2329.60
55016;DHT22;40919;43.236;21.590;2022-11-11T14:51:44;358.90;2329.60
55016;DHT22;40919;43.236;21.590;2022-11-11T14:54:35;358.90;2329.60
55016;DHT22;40919;43.236;21.590;2022-11-11T14:57:14;358.80;2329.60
55016;DHT22;40919;43.236;21.590;2022-11-11T14:59:41;358.80;2329.60
55016;DHT22;40919;43.236;21.590;2022-11-11T15:02:17;358.80;2329.60
55016;DHT22;40919;43.236;21.590;2022-11-11T15:04:46;358.70;2329.60
55016;DHT22;40919;43.236;21.590;2022-11-11T15:07:51;358.70;2329.60
55016;DHT22;40919;43.236;21.590;2022-11-11T15:10:31;358.70;2329.60
55016;DHT22;40919;43.236;21.590;2022-11-11T15:15:59;358.60;2329.60
55016;DHT22;40919;43.236;21.590;2022-11-11T15:18:58;358.60;2329.60
55016;DHT22;40919;43.236;21.590;2022-11-11T15:24:26;358.50;2329.60
55016;DHT22;40919;43.236;21.590;2022-11-11T15:27:14;358.50;2329.60
55016;DHT22;40919;43.236;21.590;2022-11-11T15:29:53;358.50;2329.60
55016;DHT22;40919;43.236;21.590;2022-11-11T15:35:41;358.40;2329.60
55016;DHT22;40919;43.236;21.590;2022-11-11T15:38:13;333.70;2329.60
55016;DHT22;40919;43.236;21.590;2022-11-11T15:40:48;333.70;2329.60
55016;DHT22;40919;43.236;21.590;2022-11-11T15:43:20;333.70;2329.60
55016;DHT22;40919;43.236;21.590;2022-11-11T15:45:53;333.60;2329.60
55016;DHT22;40919;43.236;21.590;2022-11-11T15:48:39;333.60;2329.60
55016;DHT22;40919;43.236;21.590;2022-11-11T15:51:38;333.50;2329.60
55016;DHT22;40919;43.236;21.590;2022-11-11T15:56:43;333.40;2329.60
55016;DHT22;40919;43.236;21.590;2022-11-11T15:59:29;333.40;2329.60
55016;DHT22;40919;43.236;21.590;2022-11-11T16:01:56;333.30;2329.60
55016;DHT22;40919;43.236;21.590;2022-11-11T16:04:23;333.30;2329.60
55016;DHT22;40919;43.236;21.590;2022-11-11T16:06:50;333.20;2329.60
55016;DHT22;40919;43.236;21.590;2022-11-11T16:09:24;333.20;2329.60
55016;DHT22;40919;43.236;21.590;2022-11-11T16:11:53;333.20;2329.60
55016;DHT22;40919;43.236;21.590;2022-11-11T16:14:25;333.20;2329.60
55016;DHT22;40919;43.236;21.590;2022-11-11T16:16:54;333.20;2329.60
55016;DHT22;40919;43.236;21.590;2022-11-11T16:19:37;333.00;2329.60
55016;DHT22;40919;43.236;21.590;2022-11-11T16:22:19;332.80;2329.60
55016;DHT22;40919;43.236;21.590;2022-11-11T16:24:46;332.90;2329.60
55016;DHT22;40919;43.236;21.590;2022-11-11T16:27:21;332.90;2329.60
55016;DHT22;40919;43.236;21.590;2022-11-11T16:29:48;333.00;2329.60
55016;DHT22;40919;43.236;21.590;2022-11-11T16:32:34;332.90;2329.60
55016;DHT22;40919;43.236;21.590;2022-11-11T16:35:00;308.10;2304.00
55016;DHT22;40919;43.236;21.590;2022-11-11T16:37:26;308.10;2304.00
55016;DHT22;40919;43.236;21.590;2022-11-11T16:39:52;308.10;2304.00
55016;DHT22;40919;43.236;21.590;2022-11-11T16:42:26;308.10;2304.00
55016;DHT22;40919;43.236;21.590;2022-11-11T16:44:58;308.00;2304.00
55016;DHT22;40919;43.236;21.590;2022-11-11T16:47:39;307.90;2304.00
55016;DHT22;40919;43.236;21.590;2022-11-11T16:55:23;307.90;2304.00
55016;DHT22;40919;43.236;21.590;2022-11-11T16:57:50;307.90;2304.00
55016;DHT22;40919;43.236;21.590;2022-11-11T17:00:18;307.90;2304.00
55016;DHT22;40919;43.236;21.590;2022-11-11T17:02:45;307.90;2304.00
55016;DHT22;40919;43.236;21.590;2022-11-11T17:05:11;308.00;2304.00
55016;DHT22;40919;43.236;21.590;2022-11-11T17:07:39;307.90;2304.00
55016;DHT22;40919;43.236;21.590;2022-11-11T17:10:24;307.80;2304.00
55016;DHT22;40919;43.236;21.590;2022-11-11T17:13:01;307.80;2304.00
55016;DHT22;40919;43.236;21.590;2022-11-11T17:15:29;307.80;2304.00
55016;DHT22;40919;43.236;21.590;2022-11-11T17:17:55;307.80;2304.00
55016;DHT22;40919;43.236;21.590;2022-11-11T17:20:21;307.70;2304.00
55016;DHT22;40919;43.236;21.590;2022-11-11T17:22:51;307.70;2304.00
55016;DHT22;40919;43.236;21.590;2022-11-11T17:25:17;307.70;2304.00
55016;DHT22;40919;43.236;21.590;2022-11-11T17:27:43;307.60;2304.00
55016;DHT22;40919;43.236;21.590;2022-11-11T17:30:13;307.60;2304.00
55016;DHT22;40919;43.236;21.590;2022-11-11T17:32:40;307.60;2304.00
55016;DHT22;40919;43.236;21.590;2022-11-11T17:35:06;307.60;2304.00
55016;DHT22;40919;43.236;21.590;2022-11-11T17:37:35;307.70;2304.00